Portada
METAR-TAF:

METAR-TAF

Aeropuertos :

Aeropuerto Internacional de Dakar-Yoff/Léopold Sédar Senghor

Dakar, Senegal

latitud: 14-44N, longitud: 017-30W, altitud: 27 m

Observación

El informe se hizo hace 15 horas y 14 minutos, a las 05:00 UTC
Viento 4 kt del oeste
Temperatura 26°C
Humedad 79%
Presión 1012 hPa
Visibilidad: 8000 m
Nubes dispersas a una altura de 1300 ft

METAR: GOOY 210500Z 28004KT 8000 SCT013 26/22 Q1012 NOSIG

Hora: 20:14 (20:14 UTC)

Pronóstico

El informe se hizo hace 14 horas y 44 minutos, a las 05:30 UTC
Pronóstico válido del 21 a las 06 UTC al 22 a las 12 UTC
Viento 10 kt del oeste-noroeste
Visibilidad 10 km o más
Nubes dispersas a una altura de 1300 ft

TAF: GOOY 210530Z 2106/2212 30010KT 9999 SCT013

Observaciones y pronósticos meteorológicos de más de 4000 aeropuertos (mensajes METAR y TAF).

Los puntos amarillos y rojos representan las estaciones disponibles.

Ponga el ratón en el punto deseado para ver el nombre de la estación.

Haga clic para ver las observaciones y los pronósticos meteorológicos.

Para cambiar el mapa : haga clic en los botones verdes con una cruz de color negro para hacer un zoom, en el botón verde con un guión para alejar o en las flechas verdes para mapas adyacentes.


METAR-TAF: